createdAt,value
2019-01-20T00:01:36.236Z,24.70
2019-01-20T00:04:05.504Z,26.20
2019-01-20T00:06:34.812Z,23.33
2019-01-20T00:09:07.749Z,24.87
2019-01-20T00:11:37.171Z,21.03
2019-01-20T00:14:06.957Z,25.83
2019-01-20T00:16:36.216Z,26.13
2019-01-20T00:19:06.257Z,25.87
2019-01-20T00:21:35.591Z,23.10
2019-01-20T00:24:04.953Z,24.33
2019-01-20T00:26:34.332Z,27.17
2019-01-20T00:29:03.706Z,24.47
2019-01-20T00:31:32.940Z,25.50
2019-01-20T00:34:02.219Z,24.80
2019-01-20T00:36:31.516Z,22.83
2019-01-20T00:39:01.130Z,20.67
2019-01-20T00:41:30.428Z,22.90
2019-01-20T00:43:59.804Z,27.37
2019-01-20T00:46:29.132Z,22.10
2019-01-20T00:49:01.384Z,24.30
2019-01-20T00:51:30.952Z,22.60
2019-01-20T00:54:00.376Z,22.50
2019-01-20T00:56:29.703Z,28.37
2019-01-20T00:58:59.048Z,25.20
2019-01-20T01:01:28.519Z,23.53
2019-01-20T01:03:57.783Z,23.23
2019-01-20T01:06:27.132Z,22.23
2019-01-20T01:10:17.031Z,22.13
2019-01-20T01:12:47.539Z,22.80
2019-01-20T01:22:29.735Z,24.80
2019-01-20T01:25:35.823Z,24.63
2019-01-20T01:29:03.691Z,24.63
2019-01-20T01:31:32.959Z,24.73
2019-01-20T01:34:02.253Z,23.53
2019-01-20T01:36:31.619Z,24.87
2019-01-20T01:39:00.959Z,30.17
2019-01-20T01:41:30.254Z,24.40
2019-01-20T01:44:00.180Z,23.60
2019-01-20T01:46:29.507Z,24.00
2019-01-20T01:48:58.783Z,23.37
2019-01-20T01:51:28.171Z,24.03
2019-01-20T01:53:57.702Z,22.57
2019-01-20T01:56:27.012Z,22.23
2019-01-20T01:58:56.313Z,24.17
2019-01-20T02:01:25.582Z,20.33
2019-01-20T02:03:55.001Z,27.77
2019-01-20T02:06:24.279Z,20.07
2019-01-20T02:08:54.539Z,25.10
2019-01-20T02:11:23.946Z,23.37
2019-01-20T02:13:53.254Z,20.13
2019-01-20T02:16:22.554Z,19.07
2019-01-20T02:18:51.856Z,20.90
2019-01-20T02:21:21.110Z,23.80
2019-01-20T02:23:50.402Z,23.67
2019-01-20T02:26:19.801Z,21.13
2019-01-20T02:28:49.137Z,24.97
2019-01-20T02:31:18.493Z,24.53
2019-01-20T02:33:47.734Z,24.40
2019-01-20T02:36:17.014Z,22.97
2019-01-20T02:38:46.327Z,23.63
2019-01-20T02:41:15.586Z,22.70
2019-01-20T02:43:45.012Z,24.77
2019-01-20T02:46:14.310Z,26.27
2019-01-20T02:48:44.351Z,24.67
2019-01-20T02:51:13.685Z,25.30
2019-01-20T02:53:44.706Z,22.90
2019-01-20T02:56:13.969Z,29.27
2019-01-20T02:58:43.222Z,28.23
2019-01-20T03:01:12.517Z,26.23
2019-01-20T03:03:41.869Z,26.37
2019-01-20T03:06:11.326Z,25.60
2019-01-20T03:08:40.649Z,21.17
2019-01-20T03:11:09.942Z,33.23
2019-01-20T03:13:39.181Z,26.07
2019-01-20T03:16:08.518Z,23.20
2019-01-20T03:18:38.077Z,27.10
2019-01-20T03:21:07.565Z,23.23
2019-01-20T03:23:36.910Z,25.00
2019-01-20T03:26:06.246Z,24.23
2019-01-20T03:28:35.537Z,25.03
2019-01-20T03:31:04.830Z,28.43
2019-01-20T03:33:34.108Z,25.67
2019-01-20T03:36:03.485Z,26.37
2019-01-20T03:38:32.770Z,22.63
2019-01-20T03:41:02.053Z,25.23
2019-01-20T03:43:31.353Z,26.23
2019-01-20T03:46:00.661Z,27.77
2019-01-20T03:48:29.937Z,28.57
2019-01-20T03:50:59.213Z,26.37
2019-01-20T03:53:32.241Z,28.77
2019-01-20T03:56:01.613Z,31.77
2019-01-20T03:58:31.045Z,26.13
2019-01-20T04:01:00.464Z,28.57
2019-01-20T04:03:29.760Z,25.03
2019-01-20T04:05:59.012Z,31.67
2019-01-20T04:08:28.284Z,28.20
2019-01-20T04:10:57.896Z,30.07
2019-01-20T04:13:27.144Z,27.20
2019-01-20T04:15:56.500Z,33.03
2019-01-20T04:18:25.756Z,37.90
2019-01-20T04:20:55.150Z,36.23
2019-01-20T04:23:24.440Z,27.97
2019-01-20T04:25:53.732Z,28.17
2019-01-20T04:28:23.121Z,34.93
2019-01-20T04:30:52.391Z,31.53
2019-01-20T04:33:21.765Z,30.07
2019-01-20T04:35:51.011Z,31.83
2019-01-20T04:38:20.392Z,30.50
2019-01-20T04:40:49.644Z,52.20
2019-01-20T04:43:19.012Z,29.40
2019-01-20T04:45:48.397Z,27.80
2019-01-20T04:48:17.656Z,28.57
2019-01-20T04:50:47.008Z,28.50
2019-01-20T04:53:16.287Z,28.03
2019-01-20T04:55:45.643Z,28.50
2019-01-20T04:58:15.275Z,34.07
2019-01-20T05:00:44.679Z,33.50
2019-01-20T05:03:14.043Z,31.13
2019-01-20T05:05:43.292Z,33.67
2019-01-20T05:08:12.553Z,42.47
2019-01-20T05:10:41.811Z,22.93
2019-01-20T05:13:11.103Z,30.73
2019-01-20T05:15:40.455Z,29.03
2019-01-20T05:18:09.818Z,32.30
2019-01-20T05:20:39.123Z,27.77
2019-01-20T05:23:08.496Z,29.37
2019-01-20T05:25:37.783Z,28.67
2019-01-20T05:28:07.070Z,29.90
2019-01-20T05:30:36.391Z,28.57
2019-01-20T05:33:06.210Z,28.17
2019-01-20T05:35:35.491Z,27.57
2019-01-20T05:38:04.846Z,27.47
2019-01-20T05:40:34.416Z,27.80
2019-01-20T05:43:03.782Z,27.50
2019-01-20T05:45:33.091Z,25.53
2019-01-20T05:48:02.343Z,25.87
2019-01-20T05:50:31.626Z,24.40
2019-01-20T05:53:00.966Z,24.40
2019-01-20T05:55:30.341Z,24.63
2019-01-20T05:57:59.679Z,23.50
2019-01-20T06:00:32.754Z,26.40
2019-01-20T06:03:02.052Z,27.57
2019-01-20T06:05:31.359Z,28.03
2019-01-20T06:08:00.728Z,29.03
2019-01-20T06:10:30.082Z,28.20
2019-01-20T06:12:59.446Z,27.80
2019-01-20T06:15:28.721Z,29.13
2019-01-20T06:17:57.994Z,24.37
2019-01-20T06:20:27.285Z,23.60
2019-01-20T06:22:56.681Z,28.67
2019-01-20T06:25:25.962Z,28.27
2019-01-20T06:27:55.267Z,26.27
2019-01-20T06:30:27.145Z,28.90
2019-01-20T06:32:56.421Z,27.97
2019-01-20T06:35:25.737Z,26.43
2019-01-20T06:37:54.993Z,31.93
2019-01-20T06:40:24.650Z,33.17
2019-01-20T06:43:01.278Z,23.87
2019-01-20T06:45:25.106Z,26.00
2019-01-20T06:47:54.501Z,25.13
2019-01-20T06:50:23.989Z,34.07
2019-01-20T06:52:53.265Z,29.70
2019-01-20T06:55:22.783Z,33.37
2019-01-20T06:57:52.041Z,44.73
2019-01-20T07:00:23.056Z,45.47
2019-01-20T07:02:52.346Z,61.70
2019-01-20T07:05:21.844Z,39.60
2019-01-20T07:07:51.573Z,38.03
2019-01-20T07:10:20.982Z,142.03
2019-01-20T07:12:50.380Z,44.50
2019-01-20T07:15:24.313Z,46.50
2019-01-20T07:17:53.910Z,30.80
2019-01-20T07:20:23.207Z,47.50
2019-01-20T07:22:52.558Z,47.60
2019-01-20T07:25:21.836Z,42.07
2019-01-20T07:27:51.113Z,41.57
2019-01-20T07:30:22.373Z,33.20
2019-01-20T07:32:51.649Z,85.83
2019-01-20T07:35:20.941Z,36.57
2019-01-20T07:37:50.370Z,41.00
2019-01-20T07:40:21.684Z,29.27
2019-01-20T07:42:50.992Z,28.07
2019-01-20T07:45:20.564Z,28.60
2019-01-20T07:47:49.899Z,34.43
2019-01-20T07:50:21.136Z,31.27
2019-01-20T07:52:50.552Z,29.93
2019-01-20T07:55:19.807Z,32.40
2019-01-20T07:57:49.651Z,31.27
2019-01-20T08:00:20.722Z,31.63
2019-01-20T08:02:50.132Z,32.83
2019-01-20T08:05:19.755Z,31.77
2019-01-20T08:07:49.536Z,28.73
2019-01-20T08:10:26.972Z,37.97
2019-01-20T08:12:56.947Z,37.43
2019-01-20T08:15:26.316Z,31.17
2019-01-20T08:17:55.691Z,28.23
2019-01-20T08:20:25.446Z,34.77
2019-01-20T08:22:54.797Z,34.53
2019-01-20T08:25:24.190Z,32.13
2019-01-20T08:27:53.495Z,36.53
2019-01-20T08:30:25.019Z,42.17
2019-01-20T08:32:54.405Z,43.53
2019-01-20T08:35:23.883Z,41.33
2019-01-20T08:37:53.490Z,38.83
2019-01-20T08:40:28.009Z,33.63
2019-01-20T08:42:57.251Z,46.23
2019-01-20T08:46:06.947Z,35.97
2019-01-20T08:48:36.311Z,35.50
2019-01-20T08:51:06.311Z,41.57
2019-01-20T08:53:35.643Z,33.13
2019-01-20T08:56:04.923Z,33.93
2019-01-20T08:58:34.175Z,29.00
2019-01-20T09:01:03.499Z,34.23
2019-01-20T09:03:32.759Z,35.13
2019-01-20T09:06:02.154Z,36.33
2019-01-20T09:08:31.503Z,33.80
2019-01-20T09:11:00.814Z,37.77
2019-01-20T09:13:30.287Z,64.70
2019-01-20T09:15:59.687Z,50.93
2019-01-20T09:18:29.038Z,36.27
2019-01-20T09:20:58.327Z,71.10
2019-01-20T09:23:27.658Z,71.43
2019-01-20T09:25:56.930Z,64.90
2019-01-20T09:28:26.143Z,58.40
2019-01-20T09:30:55.462Z,70.43
2019-01-20T09:33:25.008Z,34.47
2019-01-20T09:35:54.403Z,42.93
2019-01-20T09:38:23.612Z,80.57
2019-01-20T09:40:52.916Z,55.63
2019-01-20T09:43:22.174Z,56.53
2019-01-20T09:45:52.306Z,40.97
2019-01-20T09:48:21.590Z,87.43
2019-01-20T09:50:50.866Z,81.00
2019-01-20T09:53:20.128Z,53.53
2019-01-20T09:55:49.458Z,56.20
2019-01-20T09:58:19.427Z,77.03
2019-01-20T10:00:48.698Z,50.37
2019-01-20T10:03:18.075Z,32.57
2019-01-20T10:05:47.406Z,33.57
2019-01-20T10:08:16.762Z,53.47
2019-01-20T10:10:46.041Z,30.33
2019-01-20T10:13:15.358Z,28.57
2019-01-20T10:15:44.661Z,27.43
2019-01-20T10:18:14.046Z,38.30
2019-01-20T10:20:43.306Z,47.13
2019-01-20T10:23:12.698Z,38.43
2019-01-20T10:25:42.073Z,35.63
2019-01-20T10:28:13.826Z,57.83
2019-01-20T10:30:43.114Z,53.53
2019-01-20T10:33:12.488Z,42.07
2019-01-20T10:35:45.031Z,49.87
2019-01-20T10:38:14.486Z,47.47
2019-01-20T10:40:43.870Z,35.80
2019-01-20T10:43:13.821Z,32.37
2019-01-20T10:45:43.097Z,36.87
2019-01-20T10:48:12.397Z,49.10
2019-01-20T10:50:41.725Z,37.77
2019-01-20T10:53:11.433Z,35.13
2019-01-20T10:55:40.814Z,40.13
2019-01-20T10:58:10.137Z,32.90
2019-01-20T11:00:40.780Z,35.87
2019-01-20T11:03:10.065Z,36.60
2019-01-20T11:05:39.661Z,40.93
2019-01-20T11:08:08.949Z,41.70
2019-01-20T11:10:39.964Z,31.77
2019-01-20T11:13:09.317Z,37.17
2019-01-20T11:15:38.937Z,28.57
2019-01-20T11:18:08.329Z,40.10
2019-01-20T11:20:38.520Z,33.83
2019-01-20T11:23:08.292Z,36.23
2019-01-20T11:25:42.695Z,32.63
2019-01-20T11:28:12.376Z,39.00
2019-01-20T11:30:41.780Z,37.70
2019-01-20T11:33:11.156Z,42.43
2019-01-20T11:35:40.528Z,28.70
2019-01-20T11:38:09.912Z,33.33
2019-01-20T11:40:39.284Z,83.27
2019-01-20T11:43:08.596Z,42.43
2019-01-20T11:45:37.856Z,33.03
2019-01-20T11:48:07.765Z,39.47
2019-01-20T11:50:37.128Z,33.63
2019-01-20T11:53:06.497Z,33.90
2019-01-20T11:55:35.811Z,42.17
2019-01-20T11:58:05.172Z,32.00
2019-01-20T12:00:36.811Z,32.73
2019-01-20T12:03:07.332Z,32.13
2019-01-20T12:05:38.920Z,34.80
2019-01-20T12:08:08.655Z,38.57
2019-01-20T12:10:38.227Z,34.87
2019-01-20T12:13:09.796Z,35.90
2019-01-20T12:15:39.068Z,33.37
2019-01-20T12:18:08.375Z,32.60
2019-01-20T12:20:37.688Z,30.40
2019-01-20T12:23:07.035Z,41.30
2019-01-20T12:25:36.444Z,28.07
2019-01-20T12:28:05.783Z,36.13
2019-01-20T12:30:36.851Z,40.00
2019-01-20T12:33:06.411Z,44.40
2019-01-20T12:35:35.661Z,40.63
2019-01-20T12:38:05.060Z,47.27
2019-01-20T12:40:39.921Z,41.03
2019-01-20T12:43:09.595Z,36.27
2019-01-20T12:45:38.846Z,31.03
2019-01-20T12:48:08.204Z,33.40
2019-01-20T12:50:37.497Z,40.07
2019-01-20T12:53:06.743Z,31.77
2019-01-20T12:55:36.498Z,42.70
2019-01-20T12:58:06.321Z,30.00
2019-01-20T13:00:35.889Z,28.00
2019-01-20T13:03:05.258Z,33.03
2019-01-20T13:05:34.589Z,31.87
2019-01-20T13:08:03.944Z,27.27
2019-01-20T13:10:33.260Z,29.03
2019-01-20T13:13:02.567Z,22.43
2019-01-20T13:15:31.812Z,24.87
2019-01-20T13:18:01.168Z,27.40
2019-01-20T13:20:30.476Z,31.03
2019-01-20T13:22:59.784Z,27.60
2019-01-20T13:25:30.616Z,25.20
2019-01-20T13:28:00.076Z,31.80
2019-01-20T13:30:29.992Z,27.50
2019-01-20T13:32:59.317Z,32.73
2019-01-20T13:35:29.428Z,35.80
2019-01-20T13:38:07.636Z,32.70
2019-01-20T13:41:03.926Z,32.03
2019-01-20T13:43:33.960Z,31.77
2019-01-20T13:46:03.247Z,24.63
2019-01-20T13:48:32.566Z,27.27
2019-01-20T13:51:01.865Z,28.50
2019-01-20T13:53:31.223Z,32.60
2019-01-20T13:56:01.362Z,29.60
2019-01-20T13:58:31.679Z,32.67
2019-01-20T14:01:00.939Z,32.83
2019-01-20T14:03:30.207Z,33.90
2019-01-20T14:05:59.491Z,32.10
2019-01-20T14:08:28.812Z,33.30
2019-01-20T14:10:58.099Z,31.07
2019-01-20T14:13:27.384Z,31.13
2019-01-20T14:15:56.651Z,23.47
2019-01-20T14:18:25.931Z,39.13
2019-01-20T14:20:55.193Z,30.93
2019-01-20T14:23:24.527Z,29.23
2019-01-20T14:25:53.827Z,31.63
2019-01-20T14:28:23.083Z,36.90
2019-01-20T14:30:52.463Z,34.90
2019-01-20T14:33:21.875Z,31.07
2019-01-20T14:35:51.191Z,31.87
2019-01-20T14:38:20.538Z,49.17
2019-01-20T14:40:49.827Z,48.43
2019-01-20T14:43:19.095Z,36.83
2019-01-20T14:45:48.431Z,21.43
2019-01-20T14:48:17.866Z,25.43
2019-01-20T14:50:47.131Z,37.00
2019-01-20T14:53:16.387Z,48.70
2019-01-20T14:55:45.590Z,48.07
2019-01-20T14:58:14.906Z,39.93
2019-01-20T15:00:44.199Z,36.00
2019-01-20T15:03:13.447Z,25.53
2019-01-20T15:05:42.739Z,37.83
2019-01-20T15:08:12.016Z,56.73
2019-01-20T15:10:41.310Z,31.03
2019-01-20T15:13:10.571Z,38.07
2019-01-20T15:15:41.078Z,34.77
2019-01-20T15:18:10.595Z,34.07
2019-01-20T15:20:41.078Z,32.17
2019-01-20T15:23:10.381Z,30.63
2019-01-20T15:25:39.647Z,34.17
2019-01-20T15:28:09.155Z,46.17
2019-01-20T15:30:38.410Z,34.10
2019-01-20T15:33:08.153Z,45.90
2019-01-20T15:35:37.393Z,41.53
2019-01-20T15:38:06.710Z,54.87
2019-01-20T15:40:36.002Z,31.90
2019-01-20T15:43:05.395Z,32.83
2019-01-20T15:45:34.685Z,42.90
2019-01-20T15:48:04.503Z,44.23
2019-01-20T15:50:34.097Z,52.27
2019-01-20T15:53:03.399Z,51.63
2019-01-20T15:55:32.789Z,38.20
2019-01-20T15:58:02.053Z,38.87
2019-01-20T16:00:32.521Z,44.53
2019-01-20T16:03:01.841Z,40.67
2019-01-20T16:05:31.290Z,50.07
2019-01-20T16:08:00.541Z,51.10
2019-01-20T16:10:29.789Z,69.13
2019-01-20T16:12:59.045Z,75.03
2019-01-20T16:15:30.841Z,62.77
2019-01-20T16:18:00.124Z,69.33
2019-01-20T16:20:31.057Z,60.33
2019-01-20T16:23:00.894Z,54.67
2019-01-20T16:25:32.028Z,67.13
2019-01-20T16:28:01.291Z,61.37
2019-01-20T16:30:32.661Z,53.87
2019-01-20T16:33:01.945Z,71.73
2019-01-20T16:35:32.437Z,57.90
2019-01-20T16:38:02.260Z,59.60
2019-01-20T16:40:31.513Z,51.07
2019-01-20T16:43:00.813Z,49.97
2019-01-20T16:45:42.026Z,56.53
2019-01-20T16:48:07.709Z,53.30
2019-01-20T16:50:36.997Z,36.27
2019-01-20T16:53:06.246Z,39.47
2019-01-20T16:55:35.570Z,36.90
2019-01-20T16:58:05.352Z,37.27
2019-01-20T17:00:36.738Z,33.00
2019-01-20T17:03:05.993Z,36.17
2019-01-20T17:05:35.349Z,33.93
2019-01-20T17:08:04.604Z,31.23
2019-01-20T17:10:36.334Z,38.93
2019-01-20T17:13:06.408Z,32.80
2019-01-20T17:15:39.788Z,41.53
2019-01-20T17:18:10.148Z,54.73
2019-01-20T17:20:39.448Z,44.23
2019-01-20T17:23:08.704Z,47.10
2019-01-20T17:25:37.947Z,53.13
2019-01-20T17:28:07.367Z,50.87
2019-01-20T17:30:36.964Z,53.17
2019-01-20T17:33:07.436Z,56.87
2019-01-20T17:35:36.741Z,51.73
2019-01-20T17:38:06.598Z,58.30
2019-01-20T17:40:36.023Z,57.53
2019-01-20T17:43:06.288Z,51.57
2019-01-20T17:45:38.252Z,66.47
2019-01-20T17:48:07.523Z,58.47
2019-01-20T17:50:38.453Z,68.50
2019-01-20T17:53:09.020Z,63.20
2019-01-20T17:55:38.280Z,74.23
2019-01-20T17:58:07.608Z,58.63
2019-01-20T18:00:43.272Z,67.17
2019-01-20T18:03:12.539Z,65.30
2019-01-20T18:05:42.052Z,61.97
2019-01-20T18:08:11.424Z,72.83
2019-01-20T18:10:40.915Z,82.50
2019-01-20T18:13:10.207Z,99.47
2019-01-20T18:15:39.496Z,90.33
2019-01-20T18:18:08.799Z,106.80
2019-01-20T18:20:40.055Z,182.23
2019-01-20T18:23:09.360Z,103.77
2019-01-20T18:25:38.620Z,123.80
2019-01-20T18:28:08.063Z,134.17
2019-01-20T18:30:37.375Z,230.37
2019-01-20T18:33:06.647Z,188.50
2019-01-20T18:35:36.019Z,109.10
2019-01-20T18:38:05.512Z,114.67
2019-01-20T18:40:34.824Z,92.93
2019-01-20T18:43:04.159Z,92.27
2019-01-20T18:45:33.658Z,143.03
2019-01-20T18:48:03.176Z,201.67
2019-01-20T18:50:34.894Z,134.40
2019-01-20T18:53:04.279Z,127.57
2019-01-20T18:55:33.911Z,112.57
2019-01-20T18:58:03.174Z,113.23
2019-01-20T19:00:38.087Z,117.00
2019-01-20T19:03:07.385Z,112.47
2019-01-20T19:05:36.671Z,98.57
2019-01-20T19:08:05.918Z,126.70
2019-01-20T19:10:35.307Z,137.20
2019-01-20T19:13:04.646Z,185.93
2019-01-20T19:15:33.932Z,168.73
2019-01-20T19:18:03.522Z,147.07
2019-01-20T19:20:32.775Z,131.50
2019-01-20T19:23:02.128Z,143.40
2019-01-20T19:25:31.417Z,251.73
2019-01-20T19:28:00.877Z,131.67
2019-01-20T19:30:34.415Z,166.53
2019-01-20T19:33:03.662Z,80.03
2019-01-20T19:35:33.037Z,77.17
2019-01-20T19:38:02.450Z,65.63
2019-01-20T19:40:31.773Z,65.37
2019-01-20T19:43:01.097Z,60.30
2019-01-20T19:45:30.518Z,63.33
2019-01-20T19:47:59.777Z,65.37
2019-01-20T19:50:29.075Z,64.03
2019-01-20T19:52:58.404Z,65.87
2019-01-20T19:55:29.905Z,62.73
2019-01-20T19:57:59.392Z,58.53
2019-01-20T20:00:29.173Z,63.60
2019-01-20T20:02:58.657Z,60.80
2019-01-20T20:05:27.993Z,65.87
2019-01-20T20:07:58.136Z,72.50
2019-01-20T20:10:27.894Z,68.27
2019-01-20T20:12:58.349Z,58.53
2019-01-20T20:15:28.299Z,62.83
2019-01-20T20:17:57.697Z,68.90
2019-01-20T20:20:27.080Z,67.23
2019-01-20T20:22:56.480Z,69.93
2019-01-20T20:25:26.521Z,92.90
2019-01-20T20:27:56.176Z,79.47
2019-01-20T20:30:36.361Z,69.63
2019-01-20T20:33:06.244Z,78.93
2019-01-20T20:35:35.575Z,74.00
2019-01-20T20:38:05.008Z,75.73
2019-01-20T20:40:34.300Z,75.90
2019-01-20T20:43:07.308Z,79.87
2019-01-20T20:45:36.567Z,86.13
2019-01-20T20:48:05.864Z,80.10
2019-01-20T20:50:35.117Z,73.07
2019-01-20T20:53:04.510Z,80.73
2019-01-20T20:55:33.758Z,66.17
2019-01-20T20:58:03.045Z,61.37
2019-01-20T21:00:40.061Z,75.30
2019-01-20T21:03:21.582Z,58.93
2019-01-20T21:05:50.849Z,70.03
2019-01-20T21:08:20.147Z,57.93
2019-01-20T21:10:55.285Z,72.47
2019-01-20T21:13:24.680Z,63.20
2019-01-20T21:15:53.995Z,66.97
2019-01-20T21:18:23.302Z,58.13
2019-01-20T21:20:52.769Z,55.23
2019-01-20T21:23:22.238Z,48.07
2019-01-20T21:25:51.493Z,43.53
2019-01-20T21:28:20.853Z,49.47
2019-01-20T21:30:50.220Z,49.83
2019-01-20T21:33:19.529Z,41.90
2019-01-20T21:35:48.825Z,37.40
2019-01-20T21:38:18.276Z,50.27
2019-01-20T21:40:47.577Z,46.30
2019-01-20T21:43:16.891Z,38.57
2019-01-20T21:45:46.201Z,40.30
2019-01-20T21:48:15.496Z,40.37
2019-01-20T21:50:44.760Z,49.07
2019-01-20T21:53:14.124Z,49.63
2019-01-20T21:55:43.400Z,43.57
2019-01-20T21:58:12.664Z,53.07
2019-01-20T22:00:42.024Z,50.53
2019-01-20T22:03:11.276Z,40.63
2019-01-20T22:05:40.564Z,47.93
2019-01-20T22:08:09.872Z,43.23
2019-01-20T22:10:39.180Z,52.27
2019-01-20T22:13:08.515Z,48.10
2019-01-20T22:15:37.751Z,38.60
2019-01-20T22:18:09.418Z,39.87
2019-01-20T22:20:38.704Z,47.47
2019-01-20T22:23:08.020Z,49.10
2019-01-20T22:25:37.388Z,50.83
2019-01-20T22:28:06.676Z,50.50
2019-01-20T22:30:35.955Z,52.97
2019-01-20T22:33:05.363Z,43.17
2019-01-20T22:35:34.604Z,46.73
2019-01-20T22:38:04.191Z,57.73
2019-01-20T22:40:33.540Z,44.20
2019-01-20T22:43:02.812Z,53.33
2019-01-20T22:45:32.172Z,53.27
2019-01-20T22:48:01.455Z,50.10
2019-01-20T22:50:30.825Z,53.57
2019-01-20T22:53:00.108Z,47.20
2019-01-20T22:55:29.355Z,40.50
2019-01-20T22:57:58.631Z,46.97
2019-01-20T23:01:01.189Z,40.00
2019-01-20T23:03:30.863Z,44.23
2019-01-20T23:06:00.147Z,43.90
2019-01-20T23:08:29.446Z,48.63
2019-01-20T23:10:58.783Z,43.37
2019-01-20T23:13:28.040Z,48.40
2019-01-20T23:15:57.619Z,46.57
2019-01-20T23:18:27.110Z,47.30
2019-01-20T23:20:56.395Z,47.13
2019-01-20T23:23:25.669Z,54.33
2019-01-20T23:25:54.990Z,47.73
2019-01-20T23:28:24.303Z,41.97
2019-01-20T23:30:53.607Z,54.17
2019-01-20T23:33:22.850Z,48.93
2019-01-20T23:35:52.119Z,49.43
2019-01-20T23:38:21.390Z,46.13
2019-01-20T23:40:50.703Z,46.30
2019-01-20T23:43:19.967Z,44.47
2019-01-20T23:45:49.354Z,50.80
2019-01-20T23:48:18.627Z,44.73
2019-01-20T23:50:47.918Z,52.23
2019-01-20T23:53:17.217Z,39.87
2019-01-20T23:55:46.470Z,46.13
2019-01-20T23:58:15.746Z,46.23
